sensor_id;sensor_type;location;lat;lon;timestamp;temperature;humidity
3980;DHT22;2004;52.452;13.120;2022-09-01T00:06:32;16.20;99.90
3980;DHT22;2004;52.452;13.120;2022-09-01T00:14:26;16.10;99.90
3980;DHT22;2004;52.452;13.120;2022-09-01T00:22:17;16.10;99.90
3980;DHT22;2004;52.452;13.120;2022-09-01T00:30:08;16.10;99.90
3980;DHT22;2004;52.452;13.120;2022-09-01T00:37:59;16.10;99.90
3980;DHT22;2004;52.452;13.120;2022-09-01T00:45:50;16.10;99.90
3980;DHT22;2004;52.452;13.120;2022-09-01T00:53:42;16.00;99.90
3980;DHT22;2004;52.452;13.120;2022-09-01T01:01:35;16.00;99.90
3980;DHT22;2004;52.452;13.120;2022-09-01T01:09:29;16.00;99.90
3980;DHT22;2004;52.452;13.120;2022-09-01T01:17:22;16.00;99.90
3980;DHT22;2004;52.452;13.120;2022-09-01T01:25:13;15.90;99.90
3980;DHT22;2004;52.452;13.120;2022-09-01T01:33:05;15.90;99.90
3980;DHT22;2004;52.452;13.120;2022-09-01T01:40:56;15.80;99.90
3980;DHT22;2004;52.452;13.120;2022-09-01T01:48:46;15.80;99.90
3980;DHT22;2004;52.452;13.120;2022-09-01T01:56:37;15.80;99.90
3980;DHT22;2004;52.452;13.120;2022-09-01T02:04:30;15.70;99.90
3980;DHT22;2004;52.452;13.120;2022-09-01T02:12:23;15.60;99.90
3980;DHT22;2004;52.452;13.120;2022-09-01T02:20:14;15.60;99.90
3980;DHT22;2004;52.452;13.120;2022-09-01T02:28:05;15.60;99.90
3980;DHT22;2004;52.452;13.120;2022-09-01T02:36:03;15.50;99.90
3980;DHT22;2004;52.452;13.120;2022-09-01T02:43:55;15.40;99.90
3980;DHT22;2004;52.452;13.120;2022-09-01T02:51:49;15.40;99.90
3980;DHT22;2004;52.452;13.120;2022-09-01T02:59:43;15.30;99.90
3980;DHT22;2004;52.452;13.120;2022-09-01T03:07:34;15.20;99.90
3980;DHT22;2004;52.452;13.120;2022-09-01T03:15:26;15.20;99.90
3980;DHT22;2004;52.452;13.120;2022-09-01T03:23:16;15.10;99.90
3980;DHT22;2004;52.452;13.120;2022-09-01T03:31:08;14.90;99.90
3980;DHT22;2004;52.452;13.120;2022-09-01T03:39:00;14.80;99.90
3980;DHT22;2004;52.452;13.120;2022-09-01T03:46:50;14.70;99.90
3980;DHT22;2004;52.452;13.120;2022-09-01T03:54:43;14.50;99.90
3980;DHT22;2004;52.452;13.120;2022-09-01T04:02:34;14.40;99.90
3980;DHT22;2004;52.452;13.120;2022-09-01T04:10:25;14.30;99.90
3980;DHT22;2004;52.452;13.120;2022-09-01T04:18:16;14.10;99.90
3980;DHT22;2004;52.452;13.120;2022-09-01T04:26:12;14.00;99.90
3980;DHT22;2004;52.452;13.120;2022-09-01T04:34:04;13.90;99.90
3980;DHT22;2004;52.452;13.120;2022-09-01T04:42:04;13.80;99.90
3980;DHT22;2004;52.452;13.120;2022-09-01T04:49:57;13.70;99.90
3980;DHT22;2004;52.452;13.120;2022-09-01T04:57:49;13.50;99.90
3980;DHT22;2004;52.452;13.120;2022-09-01T05:05:42;13.50;99.90
3980;DHT22;2004;52.452;13.120;2022-09-01T05:13:33;13.40;99.90
3980;DHT22;2004;52.452;13.120;2022-09-01T05:21:25;13.40;99.90
3980;DHT22;2004;52.452;13.120;2022-09-01T05:29:16;13.30;99.90
3980;DHT22;2004;52.452;13.120;2022-09-01T05:37:07;13.30;99.90
3980;DHT22;2004;52.452;13.120;2022-09-01T05:44:59;13.30;99.90
3980;DHT22;2004;52.452;13.120;2022-09-01T05:52:51;13.40;99.90
3980;DHT22;2004;52.452;13.120;2022-09-01T06:00:43;13.50;99.90
3980;DHT22;2004;52.452;13.120;2022-09-01T06:08:34;13.60;99.90
3980;DHT22;2004;52.452;13.120;2022-09-01T06:16:26;13.80;99.90
3980;DHT22;2004;52.452;13.120;2022-09-01T06:24:18;13.90;99.90
3980;DHT22;2004;52.452;13.120;2022-09-01T06:32:09;14.10;99.90
3980;DHT22;2004;52.452;13.120;2022-09-01T06:40:02;14.20;99.90
3980;DHT22;2004;52.452;13.120;2022-09-01T06:47:53;14.40;99.90
3980;DHT22;2004;52.452;13.120;2022-09-01T06:55:47;14.60;99.90
3980;DHT22;2004;52.452;13.120;2022-09-01T07:03:38;14.70;99.90
3980;DHT22;2004;52.452;13.120;2022-09-01T07:11:31;15.00;99.90
3980;DHT22;2004;52.452;13.120;2022-09-01T07:19:23;15.30;99.90
3980;DHT22;2004;52.452;13.120;2022-09-01T07:27:15;15.50;99.90
3980;DHT22;2004;52.452;13.120;2022-09-01T07:35:05;15.70;99.90
3980;DHT22;2004;52.452;13.120;2022-09-01T07:42:58;15.90;99.90
3980;DHT22;2004;52.452;13.120;2022-09-01T07:50:52;16.20;99.90
3980;DHT22;2004;52.452;13.120;2022-09-01T07:58:44;16.40;99.90
3980;DHT22;2004;52.452;13.120;2022-09-01T08:06:34;16.60;99.90
3980;DHT22;2004;52.452;13.120;2022-09-01T08:14:25;16.80;99.90
3980;DHT22;2004;52.452;13.120;2022-09-01T08:22:15;17.00;99.90
3980;DHT22;2004;52.452;13.120;2022-09-01T08:30:09;17.30;99.10
3980;DHT22;2004;52.452;13.120;2022-09-01T08:37:59;17.40;95.30
3980;DHT22;2004;52.452;13.120;2022-09-01T08:45:53;17.60;91.50
3980;DHT22;2004;52.452;13.120;2022-09-01T08:54:11;17.70;91.30
3980;DHT22;2004;52.452;13.120;2022-09-01T09:10:18;17.90;85.10
3980;DHT22;2004;52.452;13.120;2022-09-01T09:18:31;18.00;84.50
3980;DHT22;2004;52.452;13.120;2022-09-01T09:26:22;18.10;81.20
3980;DHT22;2004;52.452;13.120;2022-09-01T09:34:35;18.20;77.90
3980;DHT22;2004;52.452;13.120;2022-09-01T09:42:26;18.30;78.20
3980;DHT22;2004;52.452;13.120;2022-09-01T09:50:27;18.40;73.50
3980;DHT22;2004;52.452;13.120;2022-09-01T09:58:20;18.50;73.70
3980;DHT22;2004;52.452;13.120;2022-09-01T10:14:22;18.60;76.20
3980;DHT22;2004;52.452;13.120;2022-09-01T10:22:14;18.60;76.20
3980;DHT22;2004;52.452;13.120;2022-09-01T10:30:16;18.90;78.80
3980;DHT22;2004;52.452;13.120;2022-09-01T10:38:13;19.00;76.50
3980;DHT22;2004;52.452;13.120;2022-09-01T11:02:30;19.40;70.60
3980;DHT22;2004;52.452;13.120;2022-09-01T11:10:44;19.30;72.80
3980;DHT22;2004;52.452;13.120;2022-09-01T11:18:39;19.50;71.30
3980;DHT22;2004;52.452;13.120;2022-09-01T11:34:26;19.80;65.90
3980;DHT22;2004;52.452;13.120;2022-09-01T11:42:23;19.90;65.10
3980;DHT22;2004;52.452;13.120;2022-09-01T11:50:16;19.80;69.40
3980;DHT22;2004;52.452;13.120;2022-09-01T11:58:32;19.90;66.70
3980;DHT22;2004;52.452;13.120;2022-09-01T12:06:27;20.30;65.90
3980;DHT22;2004;52.452;13.120;2022-09-01T12:14:21;20.30;64.80
3980;DHT22;2004;52.452;13.120;2022-09-01T12:22:17;20.30;64.00
3980;DHT22;2004;52.452;13.120;2022-09-01T12:30:09;20.20;62.70
3980;DHT22;2004;52.452;13.120;2022-09-01T12:38:36;20.20;61.10
3980;DHT22;2004;52.452;13.120;2022-09-01T12:46:39;20.10;64.30
3980;DHT22;2004;52.452;13.120;2022-09-01T12:54:31;20.10;66.90
3980;DHT22;2004;52.452;13.120;2022-09-01T13:02:27;20.10;68.30
3980;DHT22;2004;52.452;13.120;2022-09-01T13:10:29;20.10;67.00
3980;DHT22;2004;52.452;13.120;2022-09-01T13:18:22;20.00;66.30
3980;DHT22;2004;52.452;13.120;2022-09-01T13:26:13;20.20;66.20
3980;DHT22;2004;52.452;13.120;2022-09-01T13:34:04;20.20;66.20
3980;DHT22;2004;52.452;13.120;2022-09-01T13:41:54;20.40;66.80
3980;DHT22;2004;52.452;13.120;2022-09-01T13:49:44;20.70;65.60
3980;DHT22;2004;52.452;13.120;2022-09-01T13:57:35;20.90;62.50
3980;DHT22;2004;52.452;13.120;2022-09-01T14:05:29;20.80;61.50
3980;DHT22;2004;52.452;13.120;2022-09-01T14:13:23;20.80;60.90
3980;DHT22;2004;52.452;13.120;2022-09-01T14:21:15;20.90;62.10
3980;DHT22;2004;52.452;13.120;2022-09-01T14:29:06;20.90;64.60
3980;DHT22;2004;52.452;13.120;2022-09-01T14:36:57;20.90;62.10
3980;DHT22;2004;52.452;13.120;2022-09-01T14:44:47;20.90;59.70
3980;DHT22;2004;52.452;13.120;2022-09-01T14:52:38;21.00;60.00
3980;DHT22;2004;52.452;13.120;2022-09-01T15:00:29;20.90;61.80
3980;DHT22;2004;52.452;13.120;2022-09-01T15:08:20;21.00;61.30
3980;DHT22;2004;52.452;13.120;2022-09-01T15:16:18;21.00;61.90
3980;DHT22;2004;52.452;13.120;2022-09-01T15:24:09;21.00;61.60
3980;DHT22;2004;52.452;13.120;2022-09-01T15:32:00;20.80;59.60
3980;DHT22;2004;52.452;13.120;2022-09-01T15:39:51;20.60;60.20
3980;DHT22;2004;52.452;13.120;2022-09-01T15:47:41;20.60;62.50
3980;DHT22;2004;52.452;13.120;2022-09-01T15:55:44;20.60;62.40
3980;DHT22;2004;52.452;13.120;2022-09-01T16:03:34;20.70;61.60
3980;DHT22;2004;52.452;13.120;2022-09-01T16:11:25;20.60;61.20
3980;DHT22;2004;52.452;13.120;2022-09-01T16:19:28;20.50;63.20
3980;DHT22;2004;52.452;13.120;2022-09-01T16:27:26;20.30;63.30
3980;DHT22;2004;52.452;13.120;2022-09-01T16:35:29;20.10;65.20
3980;DHT22;2004;52.452;13.120;2022-09-01T16:59:53;19.60;68.60
3980;DHT22;2004;52.452;13.120;2022-09-01T17:15:43;19.40;71.50
3980;DHT22;2004;52.452;13.120;2022-09-01T17:24:06;19.30;73.20
3980;DHT22;2004;52.452;13.120;2022-09-01T17:32:19;19.10;73.80
3980;DHT22;2004;52.452;13.120;2022-09-01T17:56:58;18.70;74.70
3980;DHT22;2004;52.452;13.120;2022-09-01T18:05:12;18.60;77.10
3980;DHT22;2004;52.452;13.120;2022-09-01T18:13:06;18.40;77.60
3980;DHT22;2004;52.452;13.120;2022-09-01T18:21:05;18.30;78.40
3980;DHT22;2004;52.452;13.120;2022-09-01T18:29:02;18.10;79.30
3980;DHT22;2004;52.452;13.120;2022-09-01T18:45:14;17.80;80.50
3980;DHT22;2004;52.452;13.120;2022-09-01T19:01:14;17.60;82.40
3980;DHT22;2004;52.452;13.120;2022-09-01T19:09:11;17.40;83.50
3980;DHT22;2004;52.452;13.120;2022-09-01T19:25:16;17.00;86.00
3980;DHT22;2004;52.452;13.120;2022-09-01T19:33:30;16.90;86.50
3980;DHT22;2004;52.452;13.120;2022-09-01T19:41:35;16.80;88.00
3980;DHT22;2004;52.452;13.120;2022-09-01T19:49:48;16.70;90.00
3980;DHT22;2004;52.452;13.120;2022-09-01T19:58:03;16.60;89.00
3980;DHT22;2004;52.452;13.120;2022-09-01T20:06:02;16.50;90.80
3980;DHT22;2004;52.452;13.120;2022-09-01T20:30:15;16.10;95.00
3980;DHT22;2004;52.452;13.120;2022-09-01T20:46:22;15.70;99.50
3980;DHT22;2004;52.452;13.120;2022-09-01T20:54:31;15.60;99.90
3980;DHT22;2004;52.452;13.120;2022-09-01T21:10:40;15.30;99.90
3980;DHT22;2004;52.452;13.120;2022-09-01T21:26:37;15.00;99.90
3980;DHT22;2004;52.452;13.120;2022-09-01T21:34:29;14.90;99.90
3980;DHT22;2004;52.452;13.120;2022-09-01T21:42:32;14.80;99.90
3980;DHT22;2004;52.452;13.120;2022-09-01T21:50:24;14.60;99.90
3980;DHT22;2004;52.452;13.120;2022-09-01T21:58:14;14.50;99.90
3980;DHT22;2004;52.452;13.120;2022-09-01T22:06:09;14.40;99.90
3980;DHT22;2004;52.452;13.120;2022-09-01T22:14:00;14.20;99.90
3980;DHT22;2004;52.452;13.120;2022-09-01T22:21:51;14.10;99.90
3980;DHT22;2004;52.452;13.120;2022-09-01T22:29:42;13.90;99.90
3980;DHT22;2004;52.452;13.120;2022-09-01T22:37:33;13.80;99.90
3980;DHT22;2004;52.452;13.120;2022-09-01T22:45:24;13.70;99.90
3980;DHT22;2004;52.452;13.120;2022-09-01T22:53:16;13.60;99.90
3980;DHT22;2004;52.452;13.120;2022-09-01T23:01:13;13.50;99.90
3980;DHT22;2004;52.452;13.120;2022-09-01T23:09:04;13.30;99.90
3980;DHT22;2004;52.452;13.120;2022-09-01T23:16:55;13.20;99.90
3980;DHT22;2004;52.452;13.120;2022-09-01T23:24:46;13.10;99.90
3980;DHT22;2004;52.452;13.120;2022-09-01T23:32:36;13.10;99.90
3980;DHT22;2004;52.452;13.120;2022-09-01T23:40:27;13.00;99.90
3980;DHT22;2004;52.452;13.120;2022-09-01T23:48:18;12.90;99.90
3980;DHT22;2004;52.452;13.120;2022-09-01T23:56:13;12.80;99.90
